Pride — ZDFD7 — position and weather

sailwx.info

Track history (hours):
 
Tides and Currents Weather Stations Pressure Air Temp Water Temp Dewpoint Dewpoint Depression Visibility Wind Speed Wind Dir Waves Ship Positions

Pride

Last reported at 2014-Aug-24 08:33 UTC. Time now 2014-Aug-29 08:08 UTC.
Position N 56°18' E 012°05'.

Length 88 m; draft 5.1 m.

Type: Ship. MMSI: 236166000.

Date/timePositionNaut miles runAvg speedWind from/ knotsBaromVisibWave heightAir tempDewpointWater temp
2014-Aug-24 08:33N 56°18' E 012°05'8 8.4
2014-Aug-24 07:33N 56°14' E 012°17'9 9.1
2014-Aug-24 06:33N 56°08' E 012°31'9 9.2
2014-Aug-24 05:33N 56°01' E 012°41'9 9.3
2014-Aug-24 04:33N 55°52' E 012°44'10 9.7
2014-Aug-24 03:33N 55°42' E 012°41'9 9.4
2014-Aug-24 02:34N 55°33' E 012°43'9 9.2
2014-Aug-24 01:33N 55°24' E 012°41'8 8.2
2014-Aug-24 00:33N 55°17' E 012°49'35 8.7
2014-Aug-23 20:33N 54°51' E 013°29'9 9.3
2014-Aug-23 19:33N 54°43' E 013°37'30 1.9
2014-Aug-23 03:34N 54°19' E 013°07'6 5.7
2014-Aug-23 02:33N 54°15' E 013°14'8 7.8
2014-Aug-23 01:33N 54°12' E 013°27'9 8.6
2014-Aug-23 00:33N 54°14' E 013°41'9 8.6
2014-Aug-22 23:33N 54°21' E 013°50'9 9.1
2014-Aug-22 22:33N 54°30' E 013°47'9 9.5
2014-Aug-22 21:33N 54°38' E 013°40'9 9.3
2014-Aug-22 20:33N 54°44' E 013°27'9 8.9
2014-Aug-22 19:33N 54°45' E 013°12'32 7.8
2014-Aug-22 15:28N 55°10' E 012°38'8 8.2
2014-Aug-22 14:33N 55°17' E 012°33'8 8.3
2014-Aug-22 13:33N 55°24' E 012°26'9 8.6
2014-Aug-22 12:33N 55°27' E 012°12'0 0.0
2014-Aug-22 07:33N 55°27' E 012°12'0 0.0
2014-Aug-22 05:33N 55°27' E 012°12'0 0.0
2014-Aug-22 04:27N 55°27' E 012°12'0 0.0
2014-Aug-22 03:27N 55°27' E 012°12'0 0.0
2014-Aug-22 02:33N 55°27' E 012°12'0 0.0
2014-Aug-22 01:25N 55°27' E 012°12'0 0.0
2014-Aug-22 00:31N 55°27' E 012°12'0 0.0
2014-Aug-21 23:28N 55°27' E 012°12'0 0.0
2014-Aug-21 22:30N 55°27' E 012°12'0 0.0
2014-Aug-21 21:27N 55°27' E 012°12'0 0.0
2014-Aug-21 20:24N 55°27' E 012°12'0 0.0
2014-Aug-21 19:33N 55°27' E 012°12'0 0.0
2014-Aug-21 18:33N 55°27' E 012°12'0 0.0
2014-Aug-21 17:32N 55°27' E 012°12'0 0.0
2014-Aug-21 16:28N 55°27' E 012°12'0 0.0
2014-Aug-21 15:33N 55°27' E 012°12'0 0.0
2014-Aug-21 14:33N 55°27' E 012°12'0 0.0
2014-Aug-21 13:33N 55°27' E 012°12'0 0.0
2014-Aug-21 12:33N 55°27' E 012°12'5 5.3
2014-Aug-21 11:33N 55°27' E 012°21'9 8.5
2014-Aug-21 10:33N 55°20' E 012°30'8 8.3
2014-Aug-21 09:34N 55°12' E 012°36'35 7.9
2014-Aug-21 05:12N 54°53' E 013°25'5 8.3
2014-Aug-21 04:33N 54°48' E 013°31'9 8.6
2014-Aug-21 03:33N 54°41' E 013°39'9 9.1
2014-Aug-21 02:33N 54°33' E 013°46'9 8.9
2014-Aug-21 01:33N 54°25' E 013°54'9 8.5
2014-Aug-21 00:33N 54°18' E 014°02'8 8.0
2014-Aug-20 23:31N 54°13' E 014°12'8 8.8
2014-Aug-20 22:33N 54°04' E 014°15'8 8.5
2014-Aug-20 21:33N 53°56' E 014°17'6 6.4
2014-Aug-20 20:33N 53°50' E 014°19'9 9.1
2014-Aug-20 19:33N 53°42' E 014°28'13 8.8
2014-Aug-20 18:05N 53°31' E 014°38'4 7.5
2014-Aug-20 17:33N 53°27' E 014°36'3 2.8
2014-Aug-20 16:33N 53°24' E 014°36'0 0.0
2014-Aug-20 15:33N 53°24' E 014°36'0 0.0
2014-Aug-20 14:32N 53°24' E 014°36'0 0.0
2014-Aug-20 13:29N 53°24' E 014°36'0 0.0
2014-Aug-20 12:31N 53°24' E 014°36'0 0.0
2014-Aug-20 11:22N 53°24' E 014°36'0 0.0
2014-Aug-20 10:32N 53°24' E 014°36'0 0.0
2014-Aug-20 09:16N 53°24' E 014°36'0 0.0
2014-Aug-20 08:16N 53°24' E 014°36'0 0.0
2014-Aug-20 06:29N 53°24' E 014°36'0 0.0
2014-Aug-20 05:32N 53°24' E 014°36'0 0.0
2014-Aug-20 04:31N 53°24' E 014°36'0 0.0
2014-Aug-20 03:33N 53°24' E 014°36'0 0.0
2014-Aug-20 02:31N 53°24' E 014°36'0 0.0
2014-Aug-20 01:30N 53°24' E 014°36'0 0.0
2014-Aug-20 00:33N 53°24' E 014°36'0 0.0
2014-Aug-19 23:32N 53°24' E 014°36'0 0.0
2014-Aug-19 22:33N 53°24' E 014°36'0 0.0
2014-Aug-19 21:29N 53°24' E 014°36'0 0.0
2014-Aug-19 20:33N 53°24' E 014°36'0 0.0
2014-Aug-19 19:31N 53°24' E 014°36'0 0.0
2014-Aug-19 18:17N 53°24' E 014°36'0 0.0
2014-Aug-19 17:29N 53°24' E 014°36'0 0.0
2014-Aug-19 16:29N 53°24' E 014°36'0 0.0
2014-Aug-19 11:28N 53°24' E 014°36'0 0.3
2014-Aug-19 10:29N 53°25' E 014°36'0 0.0
2014-Aug-19 09:28N 53°25' E 014°36'0 0.0
2014-Aug-19 08:27N 53°25' E 014°36'0 0.0
2014-Aug-19 07:32N 53°25' E 014°36'0 0.0
2014-Aug-19 06:28N 53°25' E 014°36'0 0.0
2014-Aug-19 05:33N 53°25' E 014°36'0 0.0
2014-Aug-19 04:31N 53°25' E 014°36'0 0.0
2014-Aug-19 03:29N 53°25' E 014°36'0 0.0
2014-Aug-19 02:31N 53°25' E 014°36'0 0.0
2014-Aug-19 01:32N 53°25' E 014°36'0 0.0
2014-Aug-19 00:33N 53°25' E 014°36'0 0.0
2014-Aug-18 23:26N 53°25' E 014°36'0 0.0
2014-Aug-18 22:31N 53°25' E 014°36'0 0.0
2014-Aug-18 21:23N 53°25' E 014°36'0 0.0
2014-Aug-18 20:31N 53°25' E 014°36'0 0.0
2014-Aug-18 19:26N 53°25' E 014°36'0 0.0
2014-Aug-18 18:25N 53°25' E 014°36'0 0.0
2014-Aug-18 17:04N 53°25' E 014°36'0 0.0
2014-Aug-18 16:31N 53°25' E 014°36'0 0.0
2014-Aug-18 08:30N 53°25' E 014°36'0 0.0
2014-Aug-18 07:18N 53°25' E 014°36'0 0.0
2014-Aug-18 06:33N 53°25' E 014°36'0 0.0
2014-Aug-18 05:24N 53°25' E 014°36'0 0.0
2014-Aug-18 03:19N 53°25' E 014°36'0 0.0
2014-Aug-18 02:31N 53°25' E 014°36'0 0.0
2014-Aug-18 01:26N 53°25' E 014°36'0 0.0
2014-Aug-18 00:20N 53°25' E 014°36'37 6.5
2014-Aug-17 18:33N 54°00' E 014°15'10 9.5
2014-Aug-17 17:33N 54°09' E 014°12'9 8.8
2014-Aug-17 16:33N 54°17' E 014°04'9 9.3
2014-Aug-17 15:33N 54°24' E 013°54'10 9.6
2014-Aug-17 14:33N 54°32' E 013°46'10 9.6
2014-Aug-17 13:33N 54°41' E 013°38'10 9.6
2014-Aug-17 12:33N 54°49' E 013°30'34 8.2
2014-Aug-17 08:27N 55°15' E 012°51'8 9.2
2014-Aug-17 07:33N 55°18' E 012°38'8 8.3
2014-Aug-17 06:33N 55°26' E 012°39'10 9.7
2014-Aug-17 05:33N 55°36' E 012°42'1010.4
2014-Aug-17 04:33N 55°46' E 012°41'1010.1
2014-Aug-17 03:33N 55°56' E 012°37'9 9.1
2014-Aug-17 02:33N 56°05' E 012°35'1010.2
2014-Aug-17 01:33N 56°11' E 012°20'10 9.8
2014-Aug-17 00:33N 56°17' E 012°06'9 9.3
2014-Aug-16 23:33N 56°25' E 012°01'10 9.8
2014-Aug-16 22:33N 56°35' E 011°55'10 9.6
2014-Aug-16 21:28N 56°45' E 011°52'910.2
2014-Aug-16 20:33N 56°54' E 011°46'1010.0
2014-Aug-16 19:33N 57°03' E 011°40'1010.0
2014-Aug-16 18:32N 57°13' E 011°34'10 9.9
2014-Aug-16 17:33N 57°22' E 011°28'10 9.7
2014-Aug-16 16:33N 57°30' E 011°18'10 9.8
2014-Aug-16 15:33N 57°37' E 011°05'1010.3
2014-Aug-16 14:33N 57°44' E 010°51'1010.0
2014-Aug-16 13:33N 57°47' E 010°33'135 9.0
2014-Aug-15 22:32N 58°07' E 006°20'7 7.5
2014-Aug-15 21:33N 58°12' E 006°10'8 7.9
2014-Aug-15 20:33N 58°17' E 005°59'9 8.8
2014-Aug-15 19:33N 58°23' E 005°48'8 8.3
2014-Aug-15 18:33N 58°29' E 005°36'19 9.3
2014-Aug-15 16:33N 58°45' E 005°19'1010.2
2014-Aug-15 15:33N 58°55' E 005°19'1010.0
2014-Aug-15 14:33N 59°05' E 005°20'1110.6
2014-Aug-15 13:33N 59°12' E 005°36'1010.5
2014-Aug-15 12:33N 59°19' E 005°52'15 9.8
2014-Aug-15 11:04N 59°28' E 006°13'  
Track history (hours):
 
Tides and Currents Weather Stations Pressure Air Temp Water Temp Dewpoint Dewpoint Depression Visibility Wind Speed Wind Dir Waves Ship Positions

Pride

Last reported at 2014-Aug-24 08:33 UTC. Time now 2014-Aug-29 08:08 UTC.
Position N 56°18' E 012°05'.

Length 88 m; draft 5.1 m.

Type: Ship. MMSI: 236166000.

Date/timePositionNaut miles runAvg speedWind from/ knotsBaromVisibWave heightAir tempDewpointWater temp
2014-Aug-24 08:33N 56°18' E 012°05'8 8.4
2014-Aug-24 07:33N 56°14' E 012°17'9 9.1
2014-Aug-24 06:33N 56°08' E 012°31'9 9.2
2014-Aug-24 05:33N 56°01' E 012°41'9 9.3
2014-Aug-24 04:33N 55°52' E 012°44'10 9.7
2014-Aug-24 03:33N 55°42' E 012°41'9 9.4
2014-Aug-24 02:34N 55°33' E 012°43'9 9.2
2014-Aug-24 01:33N 55°24' E 012°41'8 8.2
2014-Aug-24 00:33N 55°17' E 012°49'35 8.7
2014-Aug-23 20:33N 54°51' E 013°29'9 9.3
2014-Aug-23 19:33N 54°43' E 013°37'30 1.9
2014-Aug-23 03:34N 54°19' E 013°07'6 5.7
2014-Aug-23 02:33N 54°15' E 013°14'8 7.8
2014-Aug-23 01:33N 54°12' E 013°27'9 8.6
2014-Aug-23 00:33N 54°14' E 013°41'9 8.6
2014-Aug-22 23:33N 54°21' E 013°50'9 9.1
2014-Aug-22 22:33N 54°30' E 013°47'9 9.5
2014-Aug-22 21:33N 54°38' E 013°40'9 9.3
2014-Aug-22 20:33N 54°44' E 013°27'9 8.9
2014-Aug-22 19:33N 54°45' E 013°12'32 7.8
2014-Aug-22 15:28N 55°10' E 012°38'8 8.2
2014-Aug-22 14:33N 55°17' E 012°33'8 8.3
2014-Aug-22 13:33N 55°24' E 012°26'9 8.6
2014-Aug-22 12:33N 55°27' E 012°12'0 0.0
2014-Aug-22 07:33N 55°27' E 012°12'0 0.0
2014-Aug-22 05:33N 55°27' E 012°12'0 0.0
2014-Aug-22 04:27N 55°27' E 012°12'0 0.0
2014-Aug-22 03:27N 55°27' E 012°12'0 0.0
2014-Aug-22 02:33N 55°27' E 012°12'0 0.0
2014-Aug-22 01:25N 55°27' E 012°12'0 0.0
2014-Aug-22 00:31N 55°27' E 012°12'0 0.0
2014-Aug-21 23:28N 55°27' E 012°12'0 0.0
2014-Aug-21 22:30N 55°27' E 012°12'0 0.0
2014-Aug-21 21:27N 55°27' E 012°12'0 0.0
2014-Aug-21 20:24N 55°27' E 012°12'0 0.0
2014-Aug-21 19:33N 55°27' E 012°12'0 0.0
2014-Aug-21 18:33N 55°27' E 012°12'0 0.0
2014-Aug-21 17:32N 55°27' E 012°12'0 0.0
2014-Aug-21 16:28N 55°27' E 012°12'0 0.0
2014-Aug-21 15:33N 55°27' E 012°12'0 0.0
2014-Aug-21 14:33N 55°27' E 012°12'0 0.0
2014-Aug-21 13:33N 55°27' E 012°12'0 0.0
2014-Aug-21 12:33N 55°27' E 012°12'5 5.3
2014-Aug-21 11:33N 55°27' E 012°21'9 8.5
2014-Aug-21 10:33N 55°20' E 012°30'8 8.3
2014-Aug-21 09:34N 55°12' E 012°36'35 7.9
2014-Aug-21 05:12N 54°53' E 013°25'5 8.3
2014-Aug-21 04:33N 54°48' E 013°31'9 8.6
2014-Aug-21 03:33N 54°41' E 013°39'9 9.1
2014-Aug-21 02:33N 54°33' E 013°46'9 8.9
2014-Aug-21 01:33N 54°25' E 013°54'9 8.5
2014-Aug-21 00:33N 54°18' E 014°02'8 8.0
2014-Aug-20 23:31N 54°13' E 014°12'8 8.8
2014-Aug-20 22:33N 54°04' E 014°15'8 8.5
2014-Aug-20 21:33N 53°56' E 014°17'6 6.4
2014-Aug-20 20:33N 53°50' E 014°19'9 9.1
2014-Aug-20 19:33N 53°42' E 014°28'13 8.8
2014-Aug-20 18:05N 53°31' E 014°38'4 7.5
2014-Aug-20 17:33N 53°27' E 014°36'3 2.8
2014-Aug-20 16:33N 53°24' E 014°36'0 0.0
2014-Aug-20 15:33N 53°24' E 014°36'0 0.0
2014-Aug-20 14:32N 53°24' E 014°36'0 0.0
2014-Aug-20 13:29N 53°24' E 014°36'0 0.0
2014-Aug-20 12:31N 53°24' E 014°36'0 0.0
2014-Aug-20 11:22N 53°24' E 014°36'0 0.0
2014-Aug-20 10:32N 53°24' E 014°36'0 0.0
2014-Aug-20 09:16N 53°24' E 014°36'0 0.0
2014-Aug-20 08:16N 53°24' E 014°36'0 0.0
2014-Aug-20 06:29N 53°24' E 014°36'0 0.0
2014-Aug-20 05:32N 53°24' E 014°36'0 0.0
2014-Aug-20 04:31N 53°24' E 014°36'0 0.0
2014-Aug-20 03:33N 53°24' E 014°36'0 0.0
2014-Aug-20 02:31N 53°24' E 014°36'0 0.0
2014-Aug-20 01:30N 53°24' E 014°36'0 0.0
2014-Aug-20 00:33N 53°24' E 014°36'0 0.0
2014-Aug-19 23:32N 53°24' E 014°36'0 0.0
2014-Aug-19 22:33N 53°24' E 014°36'0 0.0
2014-Aug-19 21:29N 53°24' E 014°36'0 0.0
2014-Aug-19 20:33N 53°24' E 014°36'0 0.0
2014-Aug-19 19:31N 53°24' E 014°36'0 0.0
2014-Aug-19 18:17N 53°24' E 014°36'0 0.0
2014-Aug-19 17:29N 53°24' E 014°36'0 0.0
2014-Aug-19 16:29N 53°24' E 014°36'0 0.0
2014-Aug-19 11:28N 53°24' E 014°36'0 0.3
2014-Aug-19 10:29N 53°25' E 014°36'0 0.0
2014-Aug-19 09:28N 53°25' E 014°36'0 0.0
2014-Aug-19 08:27N 53°25' E 014°36'0 0.0
2014-Aug-19 07:32N 53°25' E 014°36'0 0.0
2014-Aug-19 06:28N 53°25' E 014°36'0 0.0
2014-Aug-19 05:33N 53°25' E 014°36'0 0.0
2014-Aug-19 04:31N 53°25' E 014°36'0 0.0
2014-Aug-19 03:29N 53°25' E 014°36'0 0.0
2014-Aug-19 02:31N 53°25' E 014°36'0 0.0
2014-Aug-19 01:32N 53°25' E 014°36'0 0.0
2014-Aug-19 00:33N 53°25' E 014°36'0 0.0
2014-Aug-18 23:26N 53°25' E 014°36'0 0.0
2014-Aug-18 22:31N 53°25' E 014°36'0 0.0
2014-Aug-18 21:23N 53°25' E 014°36'0 0.0
2014-Aug-18 20:31N 53°25' E 014°36'0 0.0
2014-Aug-18 19:26N 53°25' E 014°36'0 0.0
2014-Aug-18 18:25N 53°25' E 014°36'0 0.0
2014-Aug-18 17:04N 53°25' E 014°36'0 0.0
2014-Aug-18 16:31N 53°25' E 014°36'0 0.0
2014-Aug-18 08:30N 53°25' E 014°36'0 0.0
2014-Aug-18 07:18N 53°25' E 014°36'0 0.0
2014-Aug-18 06:33N 53°25' E 014°36'0 0.0
2014-Aug-18 05:24N 53°25' E 014°36'0 0.0
2014-Aug-18 03:19N 53°25' E 014°36'0 0.0
2014-Aug-18 02:31N 53°25' E 014°36'0 0.0
2014-Aug-18 01:26N 53°25' E 014°36'0 0.0
2014-Aug-18 00:20N 53°25' E 014°36'37 6.5
2014-Aug-17 18:33N 54°00' E 014°15'10 9.5
2014-Aug-17 17:33N 54°09' E 014°12'9 8.8
2014-Aug-17 16:33N 54°17' E 014°04'9 9.3
2014-Aug-17 15:33N 54°24' E 013°54'10 9.6
2014-Aug-17 14:33N 54°32' E 013°46'10 9.6
2014-Aug-17 13:33N 54°41' E 013°38'10 9.6
2014-Aug-17 12:33N 54°49' E 013°30'34 8.2
2014-Aug-17 08:27N 55°15' E 012°51'8 9.2
2014-Aug-17 07:33N 55°18' E 012°38'8 8.3
2014-Aug-17 06:33N 55°26' E 012°39'10 9.7
2014-Aug-17 05:33N 55°36' E 012°42'1010.4
2014-Aug-17 04:33N 55°46' E 012°41'1010.1
2014-Aug-17 03:33N 55°56' E 012°37'9 9.1
2014-Aug-17 02:33N 56°05' E 012°35'1010.2
2014-Aug-17 01:33N 56°11' E 012°20'10 9.8
2014-Aug-17 00:33N 56°17' E 012°06'9 9.3
2014-Aug-16 23:33N 56°25' E 012°01'10 9.8
2014-Aug-16 22:33N 56°35' E 011°55'10 9.6
2014-Aug-16 21:28N 56°45' E 011°52'910.2
2014-Aug-16 20:33N 56°54' E 011°46'1010.0
2014-Aug-16 19:33N 57°03' E 011°40'1010.0
2014-Aug-16 18:32N 57°13' E 011°34'10 9.9
2014-Aug-16 17:33N 57°22' E 011°28'10 9.7
2014-Aug-16 16:33N 57°30' E 011°18'10 9.8
2014-Aug-16 15:33N 57°37' E 011°05'1010.3
2014-Aug-16 14:33N 57°44' E 010°51'1010.0
2014-Aug-16 13:33N 57°47' E 010°33'135 9.0
2014-Aug-15 22:32N 58°07' E 006°20'7 7.5
2014-Aug-15 21:33N 58°12' E 006°10'8 7.9
2014-Aug-15 20:33N 58°17' E 005°59'9 8.8
2014-Aug-15 19:33N 58°23' E 005°48'8 8.3
2014-Aug-15 18:33N 58°29' E 005°36'19 9.3
2014-Aug-15 16:33N 58°45' E 005°19'1010.2
2014-Aug-15 15:33N 58°55' E 005°19'1010.0
2014-Aug-15 14:33N 59°05' E 005°20'1110.6
2014-Aug-15 13:33N 59°12' E 005°36'1010.5
2014-Aug-15 12:33N 59°19' E 005°52'15 9.8
2014-Aug-15 11:04N 59°28' E 006°13'  

Dump ship's entire track history